createdAt,value
2018-12-12T00:01:08.910Z,74.30
2018-12-12T00:03:37.471Z,74.74
2018-12-12T00:06:06.066Z,74.28
2018-12-12T00:08:35.347Z,74.70
2018-12-12T00:11:05.239Z,74.90
2018-12-12T00:13:33.991Z,75.25
2018-12-12T00:16:04.174Z,74.15
2018-12-12T00:18:36.957Z,73.73
2018-12-12T00:21:06.016Z,74.34
2018-12-12T00:23:34.641Z,74.34
2018-12-12T00:26:04.648Z,74.19
2018-12-12T00:28:33.214Z,74.26
2018-12-12T00:31:04.328Z,73.29
2018-12-12T00:33:38.251Z,74.04
2018-12-12T00:36:11.244Z,73.85
2018-12-12T00:38:39.931Z,74.12
2018-12-12T00:41:08.675Z,74.43
2018-12-12T00:43:38.660Z,73.85
2018-12-12T00:46:07.304Z,73.64
2018-12-12T00:48:35.908Z,73.85
2018-12-12T00:51:05.293Z,73.67
2018-12-12T00:53:33.971Z,72.51
2018-12-12T00:56:04.662Z,72.69
2018-12-12T00:58:33.204Z,73.66
2018-12-12T01:01:02.836Z,73.78
2018-12-12T01:03:32.112Z,73.93
2018-12-12T01:06:00.825Z,74.34
2018-12-12T01:08:29.870Z,74.43
2018-12-12T01:11:04.968Z,73.51
2018-12-12T01:13:33.824Z,72.76
2018-12-12T01:16:05.537Z,73.15
2018-12-12T01:18:34.208Z,73.51
2018-12-12T01:21:04.452Z,74.12
2018-12-12T01:23:33.086Z,74.32
2018-12-12T01:26:02.349Z,74.60
2018-12-12T01:28:30.942Z,74.37
2018-12-12T01:30:59.631Z,74.47
2018-12-12T01:33:28.219Z,75.09
2018-12-12T01:35:57.089Z,75.13
2018-12-12T01:38:25.691Z,75.10
2018-12-12T01:40:54.419Z,75.14
2018-12-12T01:43:23.274Z,75.25
2018-12-12T01:45:51.965Z,75.35
2018-12-12T01:48:20.572Z,75.40
2018-12-12T01:50:49.280Z,75.26
2018-12-12T01:53:17.840Z,75.35
2018-12-12T01:55:46.706Z,75.31
2018-12-12T01:58:15.274Z,75.11
2018-12-12T02:00:45.239Z,75.44
2018-12-12T02:03:13.855Z,75.33
2018-12-12T02:05:42.457Z,75.22
2018-12-12T02:08:11.297Z,75.28
2018-12-12T02:10:40.232Z,75.08
2018-12-12T02:13:20.336Z,75.19
2018-12-12T02:15:49.394Z,75.20
2018-12-12T02:18:18.087Z,74.94
2018-12-12T02:20:46.711Z,74.92
2018-12-12T02:23:15.840Z,75.11
2018-12-12T02:25:45.208Z,75.09
2018-12-12T02:28:13.953Z,75.21
2018-12-12T02:30:42.670Z,75.12
2018-12-12T02:33:11.293Z,75.09
2018-12-12T02:35:40.356Z,75.09
2018-12-12T02:38:09.041Z,75.09
2018-12-12T02:40:37.831Z,74.98
2018-12-12T02:43:06.826Z,74.88
2018-12-12T02:45:35.478Z,74.79
2018-12-12T02:48:05.790Z,74.54
2018-12-12T02:50:34.495Z,74.52
2018-12-12T02:53:04.667Z,74.27
2018-12-12T02:55:33.321Z,74.17
2018-12-12T02:58:03.825Z,74.03
2018-12-12T03:00:32.856Z,74.19
2018-12-12T03:03:03.166Z,74.42
2018-12-12T03:05:31.922Z,74.12
2018-12-12T03:08:00.483Z,74.23
2018-12-12T03:10:29.091Z,74.42
2018-12-12T03:12:57.874Z,74.46
2018-12-12T03:15:28.329Z,74.55
2018-12-12T03:17:57.437Z,74.30
2018-12-12T03:20:26.060Z,74.14
2018-12-12T03:22:55.604Z,73.80
2018-12-12T03:25:24.199Z,74.28
2018-12-12T03:27:52.825Z,74.28
2018-12-12T03:30:21.453Z,74.32
2018-12-12T03:32:50.022Z,74.34
2018-12-12T03:35:18.719Z,74.43
2018-12-12T03:37:47.811Z,74.32
2018-12-12T03:40:16.826Z,74.21
2018-12-12T03:42:46.294Z,74.13
2018-12-12T03:45:15.156Z,73.91
2018-12-12T03:47:43.799Z,73.58
2018-12-12T03:50:12.447Z,73.20
2018-12-12T03:52:41.262Z,72.99
2018-12-12T03:55:09.871Z,72.24
2018-12-12T03:57:38.488Z,71.86
2018-12-12T04:00:08.876Z,71.50
2018-12-12T04:02:37.519Z,71.27
2018-12-12T04:05:06.391Z,70.94
2018-12-12T04:07:35.137Z,70.38
2018-12-12T04:10:06.374Z,69.46
2018-12-12T04:12:35.122Z,69.98
2018-12-12T04:15:05.722Z,69.85
2018-12-12T04:17:34.406Z,69.76
2018-12-12T04:20:05.338Z,69.52
2018-12-12T04:22:34.615Z,69.26
2018-12-12T04:25:05.655Z,69.72
2018-12-12T04:27:34.339Z,69.78
2018-12-12T04:30:05.341Z,69.57
2018-12-12T04:32:33.984Z,69.07
2018-12-12T04:35:04.349Z,68.92
2018-12-12T04:37:32.975Z,69.03
2018-12-12T04:40:02.532Z,69.05
2018-12-12T04:42:31.454Z,69.24
2018-12-12T04:45:00.016Z,69.14
2018-12-12T04:47:28.855Z,69.14
2018-12-12T04:49:57.901Z,68.67
2018-12-12T04:52:26.512Z,68.71
2018-12-12T04:54:55.224Z,69.05
2018-12-12T04:57:24.700Z,69.30
2018-12-12T04:59:53.340Z,69.67
2018-12-12T05:02:26.302Z,69.89
2018-12-12T05:04:56.131Z,70.24
2018-12-12T05:07:24.801Z,69.87
2018-12-12T05:09:53.465Z,70.29
2018-12-12T05:12:22.088Z,70.89
2018-12-12T05:14:50.654Z,71.34
2018-12-12T05:17:19.280Z,71.04
2018-12-12T05:19:47.928Z,71.21
2018-12-12T05:22:16.565Z,70.80
2018-12-12T05:24:45.181Z,71.38
2018-12-12T05:27:13.770Z,71.71
2018-12-12T05:29:42.374Z,72.19
2018-12-12T05:32:11.471Z,72.27
2018-12-12T05:34:40.099Z,71.96
2018-12-12T05:37:08.907Z,72.10
2018-12-12T05:39:38.373Z,72.85
2018-12-12T05:42:07.029Z,72.67
2018-12-12T05:44:35.673Z,72.63
2018-12-12T05:47:05.591Z,72.90
2018-12-12T05:49:34.382Z,73.19
2018-12-12T05:52:04.928Z,72.88
2018-12-12T05:54:33.751Z,73.12
2018-12-12T05:57:04.274Z,72.84
2018-12-12T05:59:33.197Z,72.70
2018-12-12T06:02:03.223Z,72.53
2018-12-12T06:04:31.984Z,72.54
2018-12-12T06:07:00.551Z,72.24
2018-12-12T06:09:29.267Z,72.39
2018-12-12T06:11:58.148Z,72.38
2018-12-12T06:14:26.807Z,72.85
2018-12-12T06:16:55.597Z,72.58
2018-12-12T06:19:24.239Z,72.44
2018-12-12T06:21:52.946Z,72.25
2018-12-12T06:24:21.829Z,71.74
2018-12-12T06:26:51.117Z,71.33
2018-12-12T06:29:19.814Z,72.01
2018-12-12T06:31:48.512Z,72.25
2018-12-12T06:34:17.159Z,72.12
2018-12-12T06:36:45.888Z,71.87
2018-12-12T06:39:14.478Z,71.62
2018-12-12T06:41:43.100Z,71.37
2018-12-12T06:44:11.743Z,71.16
2018-12-12T06:46:40.369Z,71.05
2018-12-12T06:49:09.325Z,71.09
2018-12-12T06:51:38.022Z,70.93
2018-12-12T06:54:06.781Z,71.00
2018-12-12T06:56:35.782Z,71.00
2018-12-12T06:59:06.152Z,70.94
2018-12-12T07:01:34.932Z,71.37
2018-12-12T07:04:05.465Z,70.71
2018-12-12T07:06:34.235Z,70.93
2018-12-12T07:09:05.735Z,70.85
2018-12-12T07:11:34.317Z,71.00
2018-12-12T07:14:04.894Z,70.78
2018-12-12T07:16:33.935Z,70.77
2018-12-12T07:19:04.234Z,70.49
2018-12-12T07:21:32.998Z,70.67
2018-12-12T07:24:02.838Z,70.78
2018-12-12T07:26:31.777Z,70.46
2018-12-12T07:29:00.409Z,70.26
2018-12-12T07:31:29.387Z,70.67
2018-12-12T07:34:00.775Z,71.03
2018-12-12T07:36:28.774Z,71.06
2018-12-12T07:38:57.380Z,71.53
2018-12-12T07:41:26.307Z,71.95
2018-12-12T07:43:54.931Z,72.06
2018-12-12T07:46:24.006Z,72.52
2018-12-12T07:48:53.012Z,72.64
2018-12-12T07:51:21.574Z,72.45
2018-12-12T07:53:50.182Z,72.67
2018-12-12T07:56:18.942Z,72.84
2018-12-12T07:58:47.800Z,72.71
2018-12-12T08:01:16.397Z,73.48
2018-12-12T08:03:45.183Z,73.38
2018-12-12T08:06:13.840Z,73.53
2018-12-12T08:08:42.805Z,73.46
2018-12-12T08:11:11.539Z,73.58
2018-12-12T08:13:44.246Z,73.24
2018-12-12T08:16:12.918Z,73.30
2018-12-12T08:18:41.842Z,73.06
2018-12-12T08:21:11.012Z,72.79
2018-12-12T08:23:39.573Z,72.24
2018-12-12T08:26:09.848Z,71.98
2018-12-12T08:28:38.931Z,71.79
2018-12-12T08:31:08.658Z,71.81
2018-12-12T08:33:37.214Z,71.47
2018-12-12T08:36:06.164Z,70.91
2018-12-12T08:38:34.763Z,70.89
2018-12-12T08:41:05.591Z,70.64
2018-12-12T08:43:34.233Z,70.60
2018-12-12T08:46:07.292Z,70.41
2018-12-12T08:48:36.367Z,70.66
2018-12-12T08:51:05.626Z,70.30
2018-12-12T08:53:34.275Z,70.10
2018-12-12T08:56:05.589Z,70.34
2018-12-12T08:58:34.176Z,70.34
2018-12-12T09:01:05.115Z,69.80
2018-12-12T09:03:33.979Z,69.74
2018-12-12T09:06:04.000Z,69.79
2018-12-12T09:08:32.749Z,69.55
2018-12-12T09:11:02.943Z,69.44
2018-12-12T09:13:31.633Z,69.45
2018-12-12T09:16:02.977Z,69.53
2018-12-12T09:18:31.618Z,69.52
2018-12-12T09:21:00.281Z,69.31
2018-12-12T09:23:28.898Z,68.91
2018-12-12T09:25:57.480Z,68.67
2018-12-12T09:28:26.271Z,69.24
2018-12-12T09:30:54.864Z,68.87
2018-12-12T09:33:24.795Z,68.70
2018-12-12T09:35:54.142Z,68.38
2018-12-12T09:38:22.847Z,68.14
2018-12-12T09:40:51.746Z,68.35
2018-12-12T09:43:20.391Z,68.65
2018-12-12T09:45:49.015Z,68.30
2018-12-12T09:48:19.675Z,68.78
2018-12-12T09:50:48.436Z,68.94
2018-12-12T09:53:17.026Z,68.83
2018-12-12T09:55:45.677Z,67.96
2018-12-12T09:58:14.264Z,67.78
2018-12-12T10:00:42.882Z,68.05
2018-12-12T10:03:12.120Z,67.79
2018-12-12T10:05:40.771Z,67.69
2018-12-12T10:08:09.413Z,67.65
2018-12-12T10:10:38.045Z,66.55
2018-12-12T10:13:06.852Z,66.84
2018-12-12T10:15:35.515Z,66.67
2018-12-12T10:18:05.440Z,66.99
2018-12-12T10:20:34.337Z,66.32
2018-12-12T10:23:05.061Z,65.80
2018-12-12T10:25:33.776Z,66.76
2018-12-12T10:28:05.580Z,66.62
2018-12-12T10:30:34.312Z,67.19
2018-12-12T10:33:04.558Z,67.01
2018-12-12T10:35:33.123Z,67.13
2018-12-12T10:38:02.873Z,66.53
2018-12-12T10:40:32.882Z,66.58
2018-12-12T10:43:03.300Z,66.10
2018-12-12T10:45:31.978Z,66.19
2018-12-12T10:48:00.934Z,65.30
2018-12-12T10:50:29.583Z,65.67
2018-12-12T10:52:58.202Z,66.52
2018-12-12T10:55:26.798Z,65.71
2018-12-12T10:57:55.493Z,65.47
2018-12-12T11:00:24.191Z,65.55
2018-12-12T11:02:58.183Z,66.83
2018-12-12T11:05:27.109Z,66.96
2018-12-12T11:07:55.705Z,66.60
2018-12-12T11:10:25.505Z,66.69
2018-12-12T11:12:58.071Z,66.53
2018-12-12T11:15:26.787Z,67.17
2018-12-12T11:17:55.766Z,67.07
2018-12-12T11:20:24.356Z,66.56
2018-12-12T11:22:53.185Z,66.30
2018-12-12T11:25:22.855Z,67.18
2018-12-12T11:27:51.621Z,67.48
2018-12-12T11:30:20.321Z,66.53
2018-12-12T11:32:48.946Z,66.28
2018-12-12T11:35:17.588Z,65.91
2018-12-12T11:37:46.366Z,66.19
2018-12-12T11:40:14.983Z,66.24
2018-12-12T11:42:44.654Z,65.43
2018-12-12T11:45:13.281Z,65.44
2018-12-12T11:47:42.045Z,65.95
2018-12-12T11:50:10.638Z,65.11
2018-12-12T11:52:39.340Z,64.58
2018-12-12T11:55:07.997Z,64.49
2018-12-12T11:57:36.864Z,64.61
2018-12-12T12:00:06.520Z,64.68
2018-12-12T12:02:35.743Z,63.55
2018-12-12T12:05:05.589Z,64.71
2018-12-12T12:07:34.461Z,63.83
2018-12-12T12:10:05.163Z,63.72
2018-12-12T12:12:34.158Z,63.39
2018-12-12T12:15:06.599Z,63.60
2018-12-12T12:17:36.547Z,63.79
2018-12-12T12:20:06.444Z,64.09
2018-12-12T12:22:35.099Z,64.71
2018-12-12T12:25:05.692Z,64.69
2018-12-12T12:27:34.403Z,64.39
2018-12-12T12:30:05.453Z,65.21
2018-12-12T12:32:34.101Z,65.15
2018-12-12T12:35:04.239Z,65.26
2018-12-12T12:37:32.855Z,65.16
2018-12-12T12:40:03.646Z,65.27
2018-12-12T12:42:32.237Z,65.01
2018-12-12T12:45:00.808Z,65.19
2018-12-12T12:47:29.358Z,64.08
2018-12-12T12:49:57.964Z,63.62
2018-12-12T12:52:26.712Z,63.59
2018-12-12T12:54:55.323Z,63.80
2018-12-12T12:57:23.948Z,63.90
2018-12-12T12:59:52.553Z,63.64
2018-12-12T13:02:21.265Z,63.34
2018-12-12T13:04:49.889Z,64.28
2018-12-12T13:07:18.506Z,63.75
2018-12-12T13:09:47.141Z,64.55
2018-12-12T13:12:15.861Z,64.44
2018-12-12T13:14:44.491Z,64.99
2018-12-12T13:17:13.062Z,65.24
2018-12-12T13:19:41.628Z,65.24
2018-12-12T13:22:10.291Z,64.93
2018-12-12T13:24:38.892Z,64.92
2018-12-12T13:27:07.514Z,64.89
2018-12-12T13:29:36.103Z,64.82
2018-12-12T13:32:05.841Z,63.64
2018-12-12T13:34:34.569Z,62.94
2018-12-12T13:37:05.059Z,63.71
2018-12-12T13:39:33.698Z,64.44
2018-12-12T13:42:04.272Z,63.86
2018-12-12T13:44:33.038Z,64.22
2018-12-12T13:47:02.871Z,63.34
2018-12-12T13:49:31.607Z,64.11
2018-12-12T13:52:00.543Z,64.00
2018-12-12T13:54:29.186Z,65.05
2018-12-12T13:56:57.937Z,65.74
2018-12-12T13:59:26.536Z,65.45
2018-12-12T14:01:55.254Z,65.96
2018-12-12T14:04:23.921Z,66.31
2018-12-12T14:06:52.642Z,66.82
2018-12-12T14:09:21.784Z,66.44
2018-12-12T14:11:50.490Z,66.76
2018-12-12T14:14:19.441Z,67.28
2018-12-12T14:16:48.512Z,67.05
2018-12-12T14:19:17.204Z,67.70
2018-12-12T14:21:45.871Z,67.91
2018-12-12T14:24:14.506Z,68.38
2018-12-12T14:26:43.270Z,68.51
2018-12-12T14:29:11.985Z,68.77
2018-12-12T14:31:40.838Z,69.13
2018-12-12T14:34:09.809Z,69.68
2018-12-12T14:36:38.407Z,69.14
2018-12-12T14:39:08.068Z,69.52
2018-12-12T14:41:36.866Z,69.50
2018-12-12T14:44:05.796Z,69.92
2018-12-12T14:46:34.409Z,69.98
2018-12-12T14:49:04.894Z,69.93
2018-12-12T14:51:33.579Z,70.14
2018-12-12T14:54:04.288Z,70.05
2018-12-12T14:56:33.117Z,70.70
2018-12-12T14:59:03.001Z,70.92
2018-12-12T15:01:31.818Z,71.20
2018-12-12T15:04:00.626Z,71.34
2018-12-12T15:06:29.359Z,71.20
2018-12-12T15:08:58.103Z,71.25
2018-12-12T15:11:26.786Z,71.45
2018-12-12T15:13:55.566Z,71.30
2018-12-12T15:16:24.367Z,71.38
2018-12-12T15:18:53.039Z,71.66
2018-12-12T15:21:25.778Z,71.79
2018-12-12T15:23:52.410Z,71.65
2018-12-12T15:26:21.371Z,71.63
2018-12-12T15:28:50.171Z,71.82
2018-12-12T15:31:18.886Z,71.64
2018-12-12T15:33:47.722Z,71.66
2018-12-12T15:36:16.499Z,71.84
2018-12-12T15:38:45.247Z,71.86
2018-12-12T15:41:14.170Z,72.18
2018-12-12T15:43:43.031Z,72.02
2018-12-12T15:46:11.651Z,72.14
2018-12-12T15:48:40.700Z,72.35
2018-12-12T15:51:09.557Z,72.81
2018-12-12T15:53:38.174Z,73.12
2018-12-12T15:56:07.297Z,74.11
2018-12-12T15:58:36.104Z,74.04
2018-12-12T16:01:05.525Z,74.20
2018-12-12T16:03:34.292Z,74.03
2018-12-12T16:06:04.681Z,74.23
2018-12-12T16:08:33.486Z,74.34
2018-12-12T16:11:08.258Z,74.46
2018-12-12T16:13:34.790Z,74.59
2018-12-12T16:16:05.000Z,74.54
2018-12-12T16:18:33.741Z,74.52
2018-12-12T16:21:03.872Z,74.31
2018-12-12T16:23:32.786Z,74.62
2018-12-12T16:26:03.344Z,74.97
2018-12-12T16:28:31.947Z,74.65
2018-12-12T16:31:00.913Z,75.02
2018-12-12T16:33:29.554Z,74.60
2018-12-12T16:35:58.365Z,75.27
2018-12-12T16:38:27.047Z,75.16
2018-12-12T16:40:56.058Z,75.46
2018-12-12T16:43:24.637Z,75.84
2018-12-12T16:45:53.315Z,75.44
2018-12-12T16:48:22.030Z,75.20
2018-12-12T16:50:50.816Z,75.21
2018-12-12T16:53:20.331Z,75.35
2018-12-12T16:55:49.071Z,75.45
2018-12-12T16:58:17.950Z,75.38
2018-12-12T17:00:46.634Z,75.39
2018-12-12T17:03:15.227Z,75.30
2018-12-12T17:05:43.886Z,75.36
2018-12-12T17:08:12.645Z,74.75
2018-12-12T17:10:41.348Z,74.59
2018-12-12T17:13:10.093Z,74.17
2018-12-12T17:15:38.961Z,74.26
2018-12-12T17:18:07.921Z,74.26
2018-12-12T17:20:36.786Z,73.92
2018-12-12T17:23:06.153Z,73.61
2018-12-12T17:25:34.781Z,73.06
2018-12-12T17:28:05.079Z,73.24
2018-12-12T17:30:33.727Z,72.76
2018-12-12T17:33:03.879Z,72.80
2018-12-12T17:35:32.501Z,72.54
2018-12-12T17:38:03.346Z,72.83
2018-12-12T17:40:32.038Z,72.52
2018-12-12T17:43:00.660Z,72.61
2018-12-12T17:45:29.475Z,72.67
2018-12-12T17:47:58.210Z,72.49
2018-12-12T17:50:27.871Z,72.76
2018-12-12T17:52:56.494Z,72.17
2018-12-12T17:55:26.138Z,72.09
2018-12-12T17:57:54.828Z,72.32
2018-12-12T18:00:23.477Z,72.40
2018-12-12T18:02:52.180Z,72.20
2018-12-12T18:05:20.933Z,72.18
2018-12-12T18:07:49.627Z,72.33
2018-12-12T18:10:18.318Z,72.38
2018-12-12T18:12:47.076Z,72.69
2018-12-12T18:15:15.868Z,72.72
2018-12-12T18:17:45.749Z,72.95
2018-12-12T18:20:14.522Z,73.61
2018-12-12T18:22:43.955Z,73.57
2018-12-12T18:25:12.718Z,73.54
2018-12-12T18:27:41.434Z,73.74
2018-12-12T18:30:10.446Z,74.30
2018-12-12T18:32:39.186Z,74.56
2018-12-12T18:35:07.884Z,73.89
2018-12-12T18:37:37.158Z,74.23
2018-12-12T18:40:06.176Z,74.33
2018-12-12T18:42:34.907Z,74.14
2018-12-12T18:45:06.312Z,74.10
2018-12-12T18:47:35.016Z,74.38
2018-12-12T18:50:06.077Z,74.63
2018-12-12T18:52:35.062Z,74.69
2018-12-12T18:55:06.020Z,74.84
2018-12-12T18:57:35.989Z,75.11
2018-12-12T19:00:06.700Z,75.25
2018-12-12T19:02:35.559Z,75.45
2018-12-12T19:05:05.581Z,75.23
2018-12-12T19:07:34.671Z,75.58
2018-12-12T19:10:06.635Z,75.47
2018-12-12T19:12:35.369Z,75.50
2018-12-12T19:15:06.793Z,75.49
2018-12-12T19:17:36.196Z,75.53
2018-12-12T19:20:06.428Z,75.74
2018-12-12T19:22:35.204Z,75.29
2018-12-12T19:25:06.852Z,75.16
2018-12-12T19:27:36.404Z,74.77
2018-12-12T19:30:07.717Z,74.64
2018-12-12T19:32:37.381Z,74.12
2018-12-12T19:35:07.682Z,74.02
2018-12-12T19:37:36.534Z,73.72
2018-12-12T19:40:06.354Z,73.56
2018-12-12T19:42:35.370Z,73.46
2018-12-12T19:45:07.784Z,73.81
2018-12-12T19:47:36.698Z,73.70
2018-12-12T19:50:09.268Z,73.70
2018-12-12T19:52:38.420Z,73.74
2018-12-12T19:55:07.576Z,73.87
2018-12-12T19:57:36.646Z,73.65
2018-12-12T20:00:07.194Z,73.96
2018-12-12T20:02:36.100Z,73.71
2018-12-12T20:05:06.537Z,73.81
2018-12-12T20:07:35.439Z,73.87
2018-12-12T20:10:07.258Z,73.83
2018-12-12T20:12:36.113Z,73.47
2018-12-12T20:15:10.216Z,73.75
2018-12-12T20:17:40.159Z,73.66
2018-12-12T20:20:09.326Z,73.67
2018-12-12T20:22:39.436Z,73.32
2018-12-12T20:25:08.444Z,73.79
2018-12-12T20:27:37.395Z,73.61
2018-12-12T20:30:06.791Z,73.59
2018-12-12T20:32:35.732Z,73.74
2018-12-12T20:35:05.776Z,74.53
2018-12-12T20:37:36.086Z,74.36
2018-12-12T20:40:06.476Z,74.29
2018-12-12T20:42:35.456Z,74.57
2018-12-12T20:45:08.973Z,74.58
2018-12-12T20:47:37.994Z,75.11
2018-12-12T20:50:07.824Z,75.45
2018-12-12T20:52:36.789Z,75.24
2018-12-12T20:55:06.261Z,74.96
2018-12-12T20:57:35.634Z,74.66
2018-12-12T21:00:05.888Z,74.72
2018-12-12T21:02:34.960Z,74.75
2018-12-12T21:05:06.783Z,75.09
2018-12-12T21:07:35.773Z,75.27
2018-12-12T21:10:05.744Z,75.20
2018-12-12T21:12:34.874Z,75.16
2018-12-12T21:15:08.540Z,75.06
2018-12-12T21:17:38.100Z,75.40
2018-12-12T21:20:08.925Z,75.77
2018-12-12T21:22:38.056Z,75.67
2018-12-12T21:25:07.527Z,75.40
2018-12-12T21:27:36.408Z,75.78
2018-12-12T21:30:07.596Z,75.83
2018-12-12T21:32:36.784Z,75.99
2018-12-12T21:35:07.545Z,75.83
2018-12-12T21:37:36.384Z,75.79
2018-12-12T21:40:06.068Z,75.75
2018-12-12T21:42:35.168Z,76.07
2018-12-12T21:45:06.411Z,75.92
2018-12-12T21:47:35.591Z,76.15
2018-12-12T21:50:06.385Z,76.15
2018-12-12T21:52:35.031Z,75.74
2018-12-12T21:55:05.820Z,75.27
2018-12-12T21:57:34.471Z,75.24
2018-12-12T22:00:04.656Z,74.93
2018-12-12T22:02:33.644Z,74.84
2018-12-12T22:05:03.922Z,75.02
2018-12-12T22:07:32.702Z,74.82
2018-12-12T22:10:03.155Z,74.80
2018-12-12T22:12:32.331Z,74.75
2018-12-12T22:15:05.038Z,74.73
2018-12-12T22:17:33.715Z,74.66
2018-12-12T22:20:05.362Z,74.86
2018-12-12T22:22:34.794Z,74.97
2018-12-12T22:25:05.318Z,75.00
2018-12-12T22:27:34.113Z,74.62
2018-12-12T22:30:03.761Z,74.98
2018-12-12T22:32:32.346Z,75.52
2018-12-12T22:35:00.913Z,75.52
2018-12-12T22:37:29.685Z,75.65
2018-12-12T22:39:58.437Z,75.88
2018-12-12T22:42:27.103Z,75.67
2018-12-12T22:44:55.830Z,75.80
2018-12-12T22:47:24.487Z,75.67
2018-12-12T22:49:53.194Z,75.83
2018-12-12T22:52:21.921Z,75.90
2018-12-12T22:54:50.826Z,76.52
2018-12-12T22:57:19.386Z,76.74
2018-12-12T22:59:48.056Z,76.75
2018-12-12T23:02:16.694Z,76.67
2018-12-12T23:04:45.643Z,76.48
2018-12-12T23:07:14.925Z,76.47
2018-12-12T23:09:43.531Z,76.60
2018-12-12T23:12:12.108Z,76.39
2018-12-12T23:14:40.862Z,76.51
2018-12-12T23:17:09.694Z,76.44
2018-12-12T23:19:38.493Z,76.49
2018-12-12T23:22:07.201Z,76.69
2018-12-12T23:24:35.794Z,76.77
2018-12-12T23:27:07.835Z,76.63
2018-12-12T23:29:36.417Z,76.63
2018-12-12T23:32:05.319Z,76.51
2018-12-12T23:34:33.972Z,76.32
2018-12-12T23:37:03.883Z,76.13
2018-12-12T23:39:32.498Z,76.33
2018-12-12T23:42:02.797Z,76.28
2018-12-12T23:44:31.650Z,76.35
2018-12-12T23:47:00.299Z,76.39
2018-12-12T23:49:29.065Z,76.27
2018-12-12T23:51:57.764Z,76.46
2018-12-12T23:54:26.452Z,76.58
2018-12-12T23:56:55.153Z,76.83
2018-12-12T23:59:23.812Z,76.55
